Time;durP1;ratioP1;P1;durP2;ratioP2;P2;SDS_P1;SDS_P2;PMS_P1;PMS_P2;Temp;Humidity;BMP_temperature;BMP_pressure;BME280_temperature;BME280_humidity;BME280_pressure;Samples;Min_cycle;Max_cycle;Signal;HPM_P1;HPM_P2
2021/04/15 00:00:48;;;;;;;12.82;9.45;;;154.10;2252.80;;;;;;5090468;28;20024;-60
2021/04/15 00:03:20;;;;;;;12.73;7.78;;;154.00;2252.80;;;;;;5089832;28;20048;-58
2021/04/15 00:05:46;;;;;;;8.68;6.35;;;154.10;2252.80;;;;;;5090671;28;20024;-60
2021/04/15 00:08:14;;;;;;;12.02;7.75;;;154.00;2252.80;;;;;;5089507;28;20026;-60
2021/04/15 00:10:44;;;;;;;11.25;6.63;;;154.00;2252.80;;;;;;5090102;28;20024;-57
2021/04/15 00:13:26;;;;;;;8.70;6.13;;;153.90;2252.80;;;;;;5090313;28;20493;-61
2021/04/15 00:15:53;;;;;;;10.20;7.15;;;154.20;2227.20;;;;;;5090349;28;20026;-61
2021/04/15 00:18:20;;;;;;;9.85;6.57;;;154.10;2227.20;;;;;;5090419;28;20089;-59
2021/04/15 00:20:45;;;;;;;10.73;7.03;;;154.00;2252.80;;;;;;5090572;28;20376;-60
2021/04/15 00:23:12;;;;;;;10.50;6.40;;;154.00;2227.20;;;;;;5090188;28;20105;-57
2021/04/15 00:25:37;;;;;;;8.52;6.38;;;154.10;2227.20;;;;;;5090021;28;20049;-61
2021/04/15 00:28:03;;;;;;;10.75;6.78;;;154.00;2227.20;;;;;;5089976;28;20028;-59
2021/04/15 00:30:30;;;;;;;10.60;6.80;;;154.00;2252.80;;;;;;5089647;28;20093;-58
2021/04/15 00:32:55;;;;;;;30.60;19.50;;;154.00;2201.60;;;;;;5089962;28;20028;-59
2021/04/15 00:35:21;;;;;;;8.60;6.75;;;154.00;2227.20;;;;;;5090120;28;20039;-58
2021/04/15 00:37:49;;;;;;;11.75;7.07;;;153.90;2252.80;;;;;;5090208;28;20028;-59
2021/04/15 00:40:20;;;;;;;10.05;6.80;;;153.90;2227.20;;;;;;5090201;28;20024;-60
2021/04/15 00:42:46;;;;;;;9.43;6.82;;;154.00;2227.20;;;;;;5089983;28;20054;-60
2021/04/15 00:45:16;;;;;;;10.82;7.35;;;154.10;2176.00;;;;;;5090008;28;20490;-57
2021/04/15 00:47:44;;;;;;;14.15;7.85;;;154.10;2201.60;;;;;;5092158;28;20043;-63
2021/04/15 00:50:19;;;;;;;8.82;6.15;;;154.00;2227.20;;;;;;5093979;28;20374;-59
2021/04/15 00:52:50;;;;;;;11.13;7.13;;;154.10;2176.00;;;;;;5093575;28;20426;-58
2021/04/15 00:55:21;;;;;;;13.73;8.25;;;154.00;2201.60;;;;;;5093595;28;20351;-60
2021/04/15 00:57:48;;;;;;;11.80;6.72;;;154.10;2201.60;;;;;;5093592;28;20489;-60
2021/04/15 01:00:18;;;;;;;9.00;6.00;;;154.10;2176.00;;;;;;5093760;28;20032;-58
2021/04/15 01:02:44;;;;;;;15.13;8.20;;;154.10;2176.00;;;;;;5093600;28;20563;-59
2021/04/15 01:05:26;;;;;;;10.50;6.07;;;153.90;2201.60;;;;;;5093324;28;20028;-57
2021/04/15 01:07:53;;;;;;;11.45;7.10;;;153.90;2201.60;;;;;;5093542;28;20370;-58
2021/04/15 01:10:21;;;;;;;10.75;6.85;;;154.00;2201.60;;;;;;5093266;28;20440;-58
2021/04/15 01:13:08;;;;;;;21.48;13.50;;;153.90;2201.60;;;;;;5093339;28;20028;-59
2021/04/15 01:15:47;;;;;;;9.18;8.25;;;153.90;2201.60;;;;;;5093535;28;20035;-56
2021/04/15 01:18:48;;;;;;;10.82;8.20;;;153.80;2227.20;;;;;;5093350;28;20438;-57
2021/04/15 01:21:19;;;;;;;13.85;7.93;;;153.70;2201.60;;;;;;5093295;28;20028;-63
2021/04/15 01:24:06;;;;;;;13.50;8.10;;;153.80;2201.60;;;;;;5093207;28;20020;-57
2021/04/15 01:26:40;;;;;;;11.82;9.02;;;153.60;2227.20;;;;;;5093111;28;20370;-62
2021/04/15 01:29:36;;;;;;;14.02;9.20;;;128.90;2252.80;;;;;;5093102;28;20111;-58
2021/04/15 01:32:17;;;;;;;9.75;6.75;;;128.90;2252.80;;;;;;5093026;28;20020;-58
2021/04/15 01:34:59;;;;;;;18.33;13.10;;;128.80;2252.80;;;;;;5093339;28;20027;-57
2021/04/15 01:37:45;;;;;;;13.20;8.63;;;128.70;2252.80;;;;;;5092932;28;20485;-60
2021/04/15 01:40:31;;;;;;;13.05;8.15;;;128.60;2252.80;;;;;;5093108;28;20036;-61
2021/04/15 01:43:21;;;;;;;12.68;7.47;;;128.60;2252.80;;;;;;5092611;28;20032;-62
2021/04/15 01:45:49;;;;;;;11.95;8.23;;;128.50;2252.80;;;;;;5092672;28;20493;-56
2021/04/15 01:48:20;;;;;;;14.98;8.65;;;128.40;2252.80;;;;;;5092697;28;20028;-60
2021/04/15 01:50:58;;;;;;;13.25;7.95;;;128.40;2252.80;;;;;;5092443;28;20042;-59
2021/04/15 01:53:32;;;;;;;18.27;12.57;;;128.30;2252.80;;;;;;5092864;28;20028;-57
2021/04/15 01:56:10;;;;;;;9.90;7.00;;;128.30;2252.80;;;;;;5092200;28;20031;-62
2021/04/15 01:58:42;;;;;;;13.35;8.18;;;128.30;2252.80;;;;;;5091545;28;20020;-57
2021/04/15 02:01:18;;;;;;;13.88;9.75;;;128.30;2252.80;;;;;;5092538;28;20039;-60
2021/04/15 02:03:47;;;;;;;11.52;7.85;;;128.20;2252.80;;;;;;5092485;28;20039;-57
2021/04/15 02:06:24;;;;;;;28.73;15.38;;;128.20;2252.80;;;;;;5092243;28;20024;-58
2021/04/15 02:09:00;;;;;;;16.05;10.55;;;128.30;2252.80;;;;;;5092335;28;20028;-60
2021/04/15 02:11:40;;;;;;;22.17;12.80;;;128.30;2252.80;;;;;;5091907;28;20034;-58
2021/04/15 02:14:09;;;;;;;20.88;8.10;;;128.20;2252.80;;;;;;5092225;28;20389;-59
2021/04/15 02:16:38;;;;;;;16.92;9.18;;;128.30;2252.80;;;;;;5092400;28;20024;-58
2021/04/15 02:19:16;;;;;;;26.02;13.98;;;128.30;2252.80;;;;;;5092045;28;20062;-58
2021/04/15 02:21:45;;;;;;;14.05;9.30;;;128.20;2252.80;;;;;;5092056;28;20062;-58
2021/04/15 02:24:22;;;;;;;17.88;10.55;;;128.30;2252.80;;;;;;5092267;28;20485;-57
2021/04/15 02:26:53;;;;;;;27.38;15.00;;;128.30;2252.80;;;;;;5091950;28;20032;-60
2021/04/15 02:29:25;;;;;;;18.25;10.43;;;128.30;2252.80;;;;;;5092145;28;20050;-58
2021/04/15 02:32:05;;;;;;;25.58;15.45;;;128.40;2252.80;;;;;;5091933;28;20127;-58
2021/04/15 02:34:40;;;;;;;34.30;19.10;;;128.30;2252.80;;;;;;5091886;28;20468;-58
2021/04/15 02:37:18;;;;;;;18.52;10.45;;;128.20;2252.80;;;;;;5091633;28;20032;-57
2021/04/15 02:40:00;;;;;;;29.70;16.90;;;128.20;2252.80;;;;;;5091669;28;20489;-57
2021/04/15 02:42:30;;;;;;;17.75;11.73;;;128.10;2252.80;;;;;;5091532;28;20032;-57
2021/04/15 02:45:17;;;;;;;11.82;8.55;;;128.00;2252.80;;;;;;5091095;28;20123;-58
2021/04/15 02:47:48;;;;;;;114.88;55.20;;;128.10;2252.80;;;;;;5091654;28;20098;-60
2021/04/15 02:50:17;;;;;;;78.47;44.05;;;128.10;2252.80;;;;;;5091409;28;20503;-60
2021/04/15 02:52:47;;;;;;;95.85;56.95;;;128.10;2252.80;;;;;;5091589;28;20054;-58
2021/04/15 02:55:17;;;;;;;15.60;9.98;;;128.20;2227.20;;;;;;5091425;28;20502;-58
2021/04/15 02:58:08;;;;;;;48.53;29.00;;;128.20;2227.20;;;;;;5091416;28;20111;-64
2021/04/15 03:00:39;;;;;;;17.25;9.77;;;128.00;2252.80;;;;;;5091512;28;20109;-58
2021/04/15 03:03:15;;;;;;;13.27;8.50;;;128.00;2252.80;;;;;;5091395;28;20032;-58
2021/04/15 03:05:46;;;;;;;17.80;10.00;;;128.10;2252.80;;;;;;5091144;28;20044;-59
2021/04/15 03:08:16;;;;;;;15.20;8.90;;;128.00;2227.20;;;;;;5091168;28;20077;-61
2021/04/15 03:10:54;;;;;;;11.18;6.50;;;103.30;2227.20;;;;;;5091140;28;20019;-59
2021/04/15 03:13:23;;;;;;;14.68;7.45;;;103.30;2201.60;;;;;;5090805;28;20074;-61
2021/04/15 03:15:53;;;;;;;15.73;9.23;;;103.30;2201.60;;;;;;5090853;28;20020;-58
2021/04/15 03:18:31;;;;;;;12.75;7.15;;;103.20;2227.20;;;;;;5090831;28;20020;-59
2021/04/15 03:21:16;;;;;;;12.65;8.38;;;103.20;2227.20;;;;;;5090544;28;20024;-58
2021/04/15 03:23:57;;;;;;;15.40;8.88;;;103.20;2201.60;;;;;;5090968;28;20038;-57
2021/04/15 03:26:34;;;;;;;19.67;10.63;;;103.20;2227.20;;;;;;5090824;28;20028;-59
2021/04/15 03:29:00;;;;;;;11.05;7.35;;;103.20;2227.20;;;;;;5090560;28;20071;-60
2021/04/15 03:31:28;;;;;;;12.73;7.35;;;103.20;2227.20;;;;;;5090838;28;20020;-58
2021/04/15 03:34:02;;;;;;;13.68;7.13;;;103.20;2201.60;;;;;;5091035;28;20028;-63
2021/04/15 03:36:32;;;;;;;11.63;7.18;;;103.20;2201.60;;;;;;5090396;28;20032;-58
2021/04/15 03:39:03;;;;;;;15.43;8.15;;;103.20;2227.20;;;;;;5090232;28;20031;-57
2021/04/15 03:41:49;;;;;;;13.85;9.27;;;103.20;2227.20;;;;;;5090340;28;20055;-60
2021/04/15 03:44:14;;;;;;;13.10;6.75;;;103.20;2201.60;;;;;;5090315;28;20406;-58
2021/04/15 03:47:06;;;;;;;12.07;7.57;;;103.20;2201.60;;;;;;5090456;28;20024;-61
2021/04/15 03:49:37;;;;;;;12.52;7.30;;;103.10;2201.60;;;;;;5090535;28;20493;-59
2021/04/15 03:52:26;;;;;;;10.32;7.03;;;103.10;2201.60;;;;;;5090273;28;20024;-57
2021/04/15 03:55:03;;;;;;;11.98;7.50;;;103.10;2176.00;;;;;;5090301;28;20497;-60
2021/04/15 03:57:29;;;;;;;12.43;7.20;;;103.10;2227.20;;;;;;5090226;28;20386;-59
2021/04/15 04:00:07;;;;;;;11.27;6.53;;;103.10;2201.60;;;;;;5090110;28;20027;-58
2021/04/15 04:02:38;;;;;;;14.50;7.43;;;103.20;2176.00;;;;;;5090201;28;20039;-58
2021/04/15 04:05:29;;;;;;;11.98;8.60;;;103.20;2176.00;;;;;;5090263;28;20047;-60
2021/04/15 04:08:02;;;;;;;16.50;8.38;;;103.30;2176.00;;;;;;5008325;28;20041;-59
2021/04/15 04:10:27;;;;;;;14.65;7.85;;;128.00;2201.60;;;;;;5007722;28;20036;-58
2021/04/15 04:13:17;;;;;;;10.98;7.18;;;128.30;2150.40;;;;;;5008222;28;20042;-57
2021/04/15 04:15:47;;;;;;;12.80;7.40;;;128.40;2124.80;;;;;;5008181;28;20586;-59
2021/04/15 04:18:43;;;;;;;14.93;7.32;;;128.40;2124.80;;;;;;5008056;28;20038;-61
2021/04/15 04:21:21;;;;;;;11.15;7.30;;;128.50;2099.20;;;;;;5008170;28;20057;-58
2021/04/15 04:24:21;;;;;;;11.35;7.00;;;128.60;2099.20;;;;;;5012109;28;20264;-60
2021/04/15 04:27:01;;;;;;;12.90;6.53;;;128.60;2073.60;;;;;;5012174;28;20053;-59
2021/04/15 04:29:42;;;;;;;15.88;8.27;;;128.70;2073.60;;;;;;5011824;28;20033;-62
2021/04/15 04:32:12;;;;;;;14.75;9.60;;;128.80;2073.60;;;;;;5011988;28;20096;-58
2021/04/15 04:34:39;;;;;;;13.95;8.45;;;128.80;2048.00;;;;;;5011801;28;20372;-58
2021/04/15 04:37:09;;;;;;;17.80;8.57;;;128.90;2022.40;;;;;;5011902;28;20476;-62
2021/04/15 04:39:35;;;;;;;9.98;6.68;;;128.90;2022.40;;;;;;5011892;28;20066;-62
2021/04/15 04:42:06;;;;;;;13.90;7.32;;;153.70;2022.40;;;;;;5011887;28;20519;-60
2021/04/15 04:44:48;;;;;;;11.30;6.30;;;153.80;1996.80;;;;;;5028732;28;20420;-59
2021/04/15 04:47:30;;;;;;;11.43;7.70;;;153.70;1971.20;;;;;;5093890;28;20024;-58
2021/04/15 04:50:23;;;;;;;15.57;7.75;;;153.80;1996.80;;;;;;5093797;28;20488;-61
2021/04/15 04:52:58;;;;;;;11.83;6.87;;;153.90;1971.20;;;;;;5093855;28;20480;-58
2021/04/15 04:55:36;;;;;;;10.82;8.23;;;154.00;1945.60;;;;;;5093781;28;20343;-60
2021/04/15 04:58:07;;;;;;;11.70;7.88;;;153.90;1945.60;;;;;;5093614;28;20027;-59
2021/04/15 05:00:50;;;;;;;12.50;8.25;;;154.10;1945.60;;;;;;5093636;28;20024;-59
2021/04/15 05:03:22;;;;;;;12.57;6.22;;;154.20;1945.60;;;;;;5093335;28;20032;-58
2021/04/15 05:05:48;;;;;;;9.80;6.70;;;154.20;1920.00;;;;;;5093392;28;20025;-57
2021/04/15 05:08:20;;;;;;;18.73;7.72;;;154.30;1920.00;;;;;;5093683;28;20055;-57
2021/04/15 05:10:51;;;;;;;11.02;8.07;;;154.40;1920.00;;;;;;5093513;28;20024;-57
2021/04/15 05:13:24;;;;;;;14.32;7.75;;;154.40;1868.80;;;;;;5093326;28;20110;-62
2021/04/15 05:15:50;;;;;;;;;;;154.50;1843.20;;;;;;5093854;28;20028;-65
2021/04/15 05:18:17;;;;;;;9.93;7.05;;;179.20;1843.20;;;;;;5092210;28;20235;-58
2021/04/15 05:20:44;;;;;;;11.88;6.28;;;179.30;1843.20;;;;;;5093415;28;20016;-60
2021/04/15 05:23:38;;;;;;;11.80;6.90;;;179.40;1817.60;;;;;;5093289;28;20036;-58
2021/04/15 05:26:06;;;;;;;432.27;281.67;;;179.60;1792.00;;;;;;5093364;28;20055;-58
2021/04/15 05:28:34;;;;;;;13.32;8.80;;;179.70;1766.40;;;;;;5093206;28;20028;-57
2021/04/15 05:31:05;;;;;;;20.50;13.35;;;180.10;1715.20;;;;;;5092590;28;20063;-57
2021/04/15 05:33:32;;;;;;;46.70;33.15;;;205.30;1638.40;;;;;;5091775;28;20359;-58
2021/04/15 05:36:06;;;;;;;36.85;25.25;;;231.00;1561.60;;;;;;5092829;28;20024;-58
2021/04/15 05:38:56;;;;;;;15.57;12.90;;;332.80;1280.00;;;;;;5092839;28;20032;-59
2021/04/15 05:41:28;;;;;;;13.80;9.30;;;384.00;1100.80;;;;;;5092236;28;20126;-59
2021/04/15 05:43:58;;;;;;;12.88;8.02;;;435.30;972.80;;;;;;5092927;28;20474;-59
2021/04/15 05:46:28;;;;;;;13.73;9.68;;;436.10;896.00;;;;;;5092882;28;20020;-69
2021/04/15 05:49:01;;;;;;;11.93;10.52;;;486.70;844.80;;;;;;5092910;28;20057;-68
2021/04/15 05:51:30;;;;;;;;;;;512.10;793.60;;;;;;5092971;28;20053;-69
2021/04/15 05:54:04;;;;;;;21.98;14.10;;;512.80;742.40;;;;;;5092510;28;19904;-69
2021/04/15 05:56:36;;;;;;;14.77;12.18;;;512.90;742.40;;;;;;5092430;28;20490;-69
2021/04/15 05:59:08;;;;;;;20.77;14.50;;;512.70;716.80;;;;;;5088710;28;20020;-67
2021/04/15 06:01:42;;;;;;;18.02;14.50;;;538.30;716.80;;;;;;5085622;28;20103;-69
2021/04/15 06:04:36;;;;;;;25.45;19.30;;;537.80;716.80;;;;;;5091115;28;20386;-68
2021/04/15 06:07:05;;;;;;;33.72;22.35;;;512.30;716.80;;;;;;5092533;28;20032;-68
2021/04/15 06:09:31;;;;;;;76.15;49.25;;;486.60;793.60;;;;;;5092438;28;20092;-69
2021/04/15 06:12:00;;;;;;;37.67;26.13;;;512.50;716.80;;;;;;5092266;28;20555;-69
2021/04/15 06:14:31;;;;;;;34.35;21.50;;;538.00;716.80;;;;;;5083586;28;20483;-68
2021/04/15 06:17:31;;;;;;;19.65;13.07;;;486.70;793.60;;;;;;5091910;28;20028;-65
2021/04/15 06:20:10;;;;;;;14.15;10.15;;;436.00;870.40;;;;;;5063719;28;20095;-65
2021/04/15 06:22:43;;;;;;;63.90;34.03;;;410.00;947.20;;;;;;5080055;28;20033;-64
2021/04/15 06:25:18;;;;;;;21.42;13.13;;;409.60;947.20;;;;;;5078170;28;20028;-63
2021/04/15 06:27:45;;;;;;;43.88;23.83;;;359.10;1024.00;;;;;;5080256;28;20032;-64
2021/04/15 06:30:14;;;;;;;15.43;9.55;;;333.50;1100.80;;;;;;5072918;28;20016;-66
2021/04/15 06:32:53;;;;;;;21.10;15.68;;;359.10;1024.00;;;;;;5091813;28;20035;-62
2021/04/15 06:35:26;;;;;;;53.83;47.92;;;333.40;1126.40;;;;;;5091740;28;20428;-64
2021/04/15 06:38:17;;;;;;;15.48;13.88;;;460.80;896.00;;;;;;5091794;28;20032;-66
2021/04/15 06:41:14;;;;;;;17.48;15.60;;;512.60;716.80;;;;;;5092289;28;20028;-64
2021/04/15 06:44:13;;;;;;;16.17;14.27;;;563.70;691.20;;;;;;5091239;28;20036;-64
2021/04/15 06:47:09;;;;;;;27.02;23.58;;;588.90;665.60;;;;;;5091434;28;20060;-63
2021/04/15 06:49:46;;;;;;;14.77;13.32;;;614.40;614.40;;;;;;5091702;28;20397;-63
2021/04/15 06:52:19;;;;;;;13.60;12.20;;;564.10;665.60;;;;;;5091839;28;20028;-63
2021/04/15 06:55:02;;;;;;;;;;;563.40;716.80;;;;;;5092119;28;20105;-63
2021/04/15 06:57:39;;;;;;;11.75;8.73;;;538.00;716.80;;;;;;5091625;28;19904;-65
2021/04/15 07:00:41;;;;;;;15.48;11.85;;;461.40;844.80;;;;;;5091766;28;20165;-64
2021/04/15 07:03:21;;;;;;;13.25;10.25;;;461.10;870.40;;;;;;5092340;28;20036;-63
2021/04/15 07:05:57;;;;;;;17.83;12.70;;;435.40;870.40;;;;;;5093613;28;20040;-66
2021/04/15 07:08:28;;;;;;;12.10;9.75;;;435.60;844.80;;;;;;5091534;28;20052;-66
2021/04/15 07:10:57;;;;;;;14.43;12.18;;;487.00;768.00;;;;;;5091378;28;20031;-63
2021/04/15 07:13:47;;;;;;;12.45;10.07;;;487.30;742.40;;;;;;5091243;28;20491;-64
2021/04/15 07:16:13;;;;;;;25.92;19.95;;;461.70;793.60;;;;;;5091353;28;20032;-64
2021/04/15 07:19:20;;;;;;;13.32;9.77;;;512.20;742.40;;;;;;5090901;28;20492;-65
2021/04/15 07:22:03;;;;;;;19.63;12.90;;;435.90;844.80;;;;;;5009161;28;20451;-66
2021/04/15 07:25:05;;;;;;;16.98;13.18;;;410.30;921.60;;;;;;5009117;28;20042;-64
2021/04/15 07:28:04;;;;;;;13.88;11.38;;;384.40;998.40;;;;;;5006893;28;20091;-66
2021/04/15 07:30:51;;;;;;;17.45;14.45;;;487.30;768.00;;;;;;5006859;28;20448;-65
2021/04/15 07:33:35;;;;;;;19.77;14.32;;;589.20;665.60;;;;;;5007309;28;20034;-67
2021/04/15 07:36:25;;;;;;;15.02;10.77;;;589.70;640.00;;;;;;5007247;28;20038;-66
2021/04/15 07:39:25;;;;;;;12.27;10.18;;;588.80;691.20;;;;;;5006726;28;20121;-64
2021/04/15 07:42:20;;;;;;;15.85;10.27;;;512.30;742.40;;;;;;5006484;28;20489;-67
2021/04/15 07:44:49;;;;;;;16.23;12.02;;;487.30;768.00;;;;;;5006589;28;20212;-65
2021/04/15 07:47:39;;;;;;;12.93;9.88;;;461.20;844.80;;;;;;5006945;28;20026;-67
2021/04/15 07:50:41;;;;;;;13.23;9.75;;;410.30;896.00;;;;;;5006782;28;20500;-66
2021/04/15 07:53:22;;;;;;;10.93;9.73;;;486.80;793.60;;;;;;5006133;28;20030;-64
2021/04/15 07:56:08;;;;;;;10.25;8.65;;;512.80;716.80;;;;;;5051087;28;20036;-68
2021/04/15 07:58:56;;;;;;;12.43;9.05;;;538.00;691.20;;;;;;5089109;28;20027;-64
2021/04/15 08:02:00;;;;;;;14.05;8.68;;;487.10;742.40;;;;;;5089060;28;20066;-64
2021/04/15 08:04:47;;;;;;;12.25;8.57;;;435.20;870.40;;;;;;5090646;28;20605;-64
2021/04/15 08:07:43;;;;;;;11.30;8.45;;;409.60;947.20;;;;;;5090855;28;20039;-64
2021/04/15 08:10:27;;;;;;;12.10;9.05;;;409.60;947.20;;;;;;5078838;28;20025;-64
2021/04/15 08:13:26;;;;;;;16.90;12.57;;;384.70;947.20;;;;;;5072709;28;20077;-66
2021/04/15 08:16:13;;;;;;;16.17;11.55;;;384.50;972.80;;;;;;5079169;28;20492;-63
2021/04/15 08:19:20;;;;;;;13.20;11.80;;;460.80;896.00;;;;;;5075220;28;20017;-63
2021/04/15 08:22:23;;;;;;;11.68;9.18;;;538.40;716.80;;;;;;4994697;28;20500;-66
2021/04/15 08:25:18;;;;;;;9.75;7.63;;;486.70;716.80;;;;;;4997082;28;20049;-64
2021/04/15 08:28:11;;;;;;;13.55;10.05;;;435.40;819.20;;;;;;4947383;28;20170;-64
2021/04/15 08:30:51;;;;;;;11.98;8.30;;;384.50;921.60;;;;;;4929963;29;20527;-67
2021/04/15 08:33:28;;;;;;;11.65;8.80;;;359.20;947.20;;;;;;4946553;29;20047;-65
2021/04/15 08:36:09;;;;;;;13.35;11.02;;;410.40;896.00;;;;;;4946725;28;20091;-64
2021/04/15 08:38:43;;;;;;;15.05;13.30;;;486.60;793.60;;;;;;4946795;28;20081;-64
2021/04/15 08:41:20;;;;;;;16.58;11.52;;;512.20;742.40;;;;;;4946422;29;20082;-65
2021/04/15 08:44:33;;;;;;;11.95;8.02;;;487.10;716.80;;;;;;4946929;29;20036;-62
2021/04/15 08:47:09;;;;;;;17.85;13.93;;;461.20;768.00;;;;;;4935399;29;20366;-64
2021/04/15 08:49:42;;;;;;;8.18;6.53;;;435.40;870.40;;;;;;4946862;28;20035;-65
2021/04/15 08:52:23;;;;;;;12.45;8.90;;;384.50;921.60;;;;;;4976373;28;20026;-65
2021/04/15 08:55:06;;;;;;;17.95;11.32;;;359.00;972.80;;;;;;5028781;28;20566;-64
2021/04/15 08:58:08;;;;;;;18.42;12.10;;;358.40;998.40;;;;;;5028016;28;20068;-67
2021/04/15 09:01:01;;;;;;;15.70;9.75;;;333.70;1024.00;;;;;;5027737;28;20033;-64
2021/04/15 09:03:47;;;;;;;14.30;9.80;;;333.50;1049.60;;;;;;5039774;28;20092;-63
2021/04/15 09:06:25;;;;;;;19.25;13.85;;;358.60;1024.00;;;;;;5082465;28;20048;-67
2021/04/15 09:09:20;;;;;;;12.68;9.95;;;358.70;1049.60;;;;;;5092166;28;20024;-64
2021/04/15 09:12:17;;;;;;;8.27;6.72;;;359.20;1024.00;;;;;;5094434;28;20016;-64
2021/04/15 09:15:01;;;;;;;10.82;6.78;;;358.80;972.80;;;;;;5093381;28;20027;-64
2021/04/15 09:17:27;;;;;;;10.07;7.78;;;333.50;972.80;;;;;;5092149;28;20526;-63
2021/04/15 09:20:06;;;;;;;9.90;8.63;;;333.00;1049.60;;;;;;5093654;28;20067;-65
2021/04/15 09:22:43;;;;;;;12.63;8.55;;;307.80;1126.40;;;;;;5093719;28;20389;-62
2021/04/15 09:25:17;;;;;;;13.15;8.43;;;307.90;1100.80;;;;;;5090475;28;20166;-63
2021/04/15 09:28:32;;;;;;;11.65;8.85;;;307.90;1100.80;;;;;;5074949;28;20025;-63
2021/04/15 09:31:16;;;;;;;12.43;10.05;;;332.90;1100.80;;;;;;5010814;28;20045;-64
2021/04/15 09:33:44;;;;;;;;;;;333.50;1075.20;;;;;;5011871;28;20443;-62
2021/04/15 09:36:17;;;;;;;13.20;8.45;;;333.50;1075.20;;;;;;5010960;28;20415;-62
2021/04/15 09:39:19;;;;;;;12.10;8.45;;;333.10;1100.80;;;;;;5010717;28;20030;-65
2021/04/15 09:42:00;;;;;;;13.63;9.25;;;308.10;1100.80;;;;;;4952263;28;20130;-65
2021/04/15 09:44:40;;;;;;;13.23;9.35;;;307.80;1100.80;;;;;;4952548;28;20053;-63
2021/04/15 09:47:39;;;;;;;19.52;13.07;;;307.60;1126.40;;;;;;4952634;29;20643;-64
2021/04/15 09:50:28;;;;;;;49.28;32.90;;;307.60;1126.40;;;;;;4953586;28;20029;-64
2021/04/15 09:53:18;;;;;;;37.85;29.50;;;307.80;1152.00;;;;;;4936676;29;20027;-66
2021/04/15 09:55:52;;;;;;;28.77;23.83;;;307.80;1152.00;;;;;;4953415;29;20059;-65
2021/04/15 09:58:51;;;;;;;38.53;29.70;;;308.10;1126.40;;;;;;4952180;28;20019;-65
2021/04/15 10:01:28;;;;;;;20.58;18.17;;;333.20;1177.60;;;;;;4952353;28;20027;-64
2021/04/15 10:03:57;;;;;;;10.13;8.27;;;332.80;1126.40;;;;;;4952148;28;20035;-63
2021/04/15 10:06:33;;;;;;;15.70;9.10;;;307.60;1126.40;;;;;;4957049;28;20490;-65
2021/04/15 10:09:16;;;;;;;13.98;7.63;;;307.40;1177.60;;;;;;5010753;28;20041;-66
2021/04/15 10:12:07;;;;;;;18.17;11.98;;;282.50;1152.00;;;;;;5011101;28;20470;-63
2021/04/15 10:14:46;;;;;;;14.23;10.50;;;282.30;1152.00;;;;;;4994464;28;20034;-63
2021/04/15 10:17:31;;;;;;;24.10;17.50;;;282.10;1177.60;;;;;;5010849;28;20037;-65
2021/04/15 10:20:35;;;;;;;42.72;27.65;;;282.30;1177.60;;;;;;5069079;28;20482;-65
2021/04/15 10:23:26;;;;;;;24.98;14.82;;;307.20;1203.20;;;;;;5075495;28;20130;-63
2021/04/15 10:25:57;;;;;;;49.88;29.20;;;307.20;1152.00;;;;;;5072257;28;20051;-64
2021/04/15 10:28:47;;;;;;;22.63;14.32;;;282.50;1126.40;;;;;;5074174;28;20401;-65
2021/04/15 10:31:22;;;;;;;12.32;8.82;;;307.30;1177.60;;;;;;5073511;28;20036;-65
2021/04/15 10:34:25;;;;;;;72.38;46.38;;;282.50;1126.40;;;;;;5072122;28;20378;-64
2021/04/15 10:37:00;;;;;;;20.02;12.32;;;307.20;1126.40;;;;;;5072168;28;20497;-63
2021/04/15 10:39:47;;;;;;;10.13;7.57;;;307.20;1126.40;;;;;;5072198;28;20111;-66
2021/04/15 10:42:18;;;;;;;25.95;19.73;;;282.40;1152.00;;;;;;5072232;28;20043;-65
2021/04/15 10:44:53;;;;;;;16.25;10.18;;;282.50;1126.40;;;;;;5071709;28;20040;-63
2021/04/15 10:47:28;;;;;;;12.75;9.45;;;282.30;1152.00;;;;;;5071818;28;20020;-66
2021/04/15 10:50:18;;;;;;;13.65;10.10;;;282.40;1152.00;;;;;;5070201;28;20055;-64
2021/04/15 10:52:52;;;;;;;19.35;11.02;;;307.30;1152.00;;;;;;5071720;28;20488;-63
2021/04/15 10:55:18;;;;;;;12.57;7.22;;;307.70;1126.40;;;;;;5071697;28;20028;-64
2021/04/15 10:57:44;;;;;;;10.60;7.40;;;307.70;1126.40;;;;;;5071729;28;20020;-64
2021/04/15 11:00:32;;;;;;;25.50;21.60;;;307.70;1126.40;;;;;;5071043;28;20203;-63
2021/04/15 11:03:20;;;;;;;16.52;10.45;;;308.10;1075.20;;;;;;5071024;28;20041;-64
2021/04/15 11:05:48;;;;;;;20.92;13.32;;;332.80;1100.80;;;;;;5070878;28;20475;-63
2021/04/15 11:08:31;;;;;;;27.67;18.33;;;332.80;1126.40;;;;;;5070994;28;20029;-64
2021/04/15 11:11:20;;;;;;;20.20;13.48;;;332.90;1100.80;;;;;;5070664;28;20494;-65
2021/04/15 11:13:47;;;;;;;13.23;10.30;;;308.00;1100.80;;;;;;5071163;28;20386;-64
2021/04/15 11:16:22;;;;;;;14.50;9.07;;;307.90;1126.40;;;;;;5070630;28;20021;-62
2021/04/15 11:18:50;;;;;;;14.32;10.95;;;307.80;1152.00;;;;;;5071088;28;20036;-62
2021/04/15 11:21:26;;;;;;;14.07;9.70;;;307.50;1152.00;;;;;;5070791;28;20051;-64
2021/04/15 11:23:54;;;;;;;14.13;10.80;;;307.50;1203.20;;;;;;5070626;28;20072;-63
2021/04/15 11:26:28;;;;;;;11.27;8.98;;;307.60;1177.60;;;;;;5070817;28;20027;-63
2021/04/15 11:28:59;;;;;;;19.23;12.80;;;307.70;1152.00;;;;;;5070513;28;20510;-62
2021/04/15 11:31:48;;;;;;;15.52;11.07;;;307.90;1126.40;;;;;;5070633;28;20070;-62
2021/04/15 11:34:22;;;;;;;14.68;11.23;;;332.90;1126.40;;;;;;5070534;28;20021;-63
2021/04/15 11:36:57;;;;;;;16.08;12.75;;;333.20;1126.40;;;;;;5070457;28;20040;-63
2021/04/15 11:39:26;;;;;;;13.63;8.55;;;333.40;1100.80;;;;;;5070380;28;20016;-63
2021/04/15 11:42:01;;;;;;;13.35;9.93;;;333.30;1126.40;;;;;;5070369;28;20012;-63
2021/04/15 11:44:52;;;;;;;9.20;6.40;;;358.40;1100.80;;;;;;5069992;28;20493;-64
2021/04/15 11:47:28;;;;;;;14.85;9.35;;;333.70;1049.60;;;;;;5069850;28;20398;-63
2021/04/15 11:50:12;;;;;;;10.85;7.10;;;358.60;1049.60;;;;;;5070364;28;20024;-65
2021/04/15 11:52:41;;;;;;;19.52;11.50;;;358.60;972.80;;;;;;5069911;28;20397;-64
2021/04/15 11:55:07;;;;;;;20.70;15.07;;;358.50;998.40;;;;;;5070020;28;20101;-64
2021/04/15 11:57:37;;;;;;;19.88;12.10;;;358.50;1024.00;;;;;;5070222;28;20434;-64
2021/04/15 12:00:17;;;;;;;14.15;10.10;;;333.70;1024.00;;;;;;5070335;28;20024;-64
2021/04/15 12:02:49;;;;;;;18.75;15.55;;;333.20;1075.20;;;;;;5070128;28;20364;-64
2021/04/15 12:05:20;;;;;;;18.70;12.18;;;333.10;1100.80;;;;;;5070009;28;20085;-65
2021/04/15 12:08:12;;;;;;;30.35;19.88;;;333.10;1100.80;;;;;;5069936;28;20055;-65
2021/04/15 12:10:42;;;;;;;13.73;11.43;;;333.40;1100.80;;;;;;5027626;28;20025;-64
2021/04/15 12:13:37;;;;;;;30.48;21.85;;;333.20;1100.80;;;;;;5027587;28;20120;-64
2021/04/15 12:16:36;;;;;;;40.80;16.75;;;332.90;1152.00;;;;;;4930661;29;20039;-64
2021/04/15 12:19:18;;;;;;;25.92;17.20;;;332.90;1177.60;;;;;;4930897;29;20133;-63
2021/04/15 12:21:50;;;;;;;17.55;14.25;;;332.90;1152.00;;;;;;4930987;29;20040;-64
2021/04/15 12:24:47;;;;;;;41.97;31.85;;;333.00;1152.00;;;;;;4930920;29;20382;-64
2021/04/15 12:27:19;;;;;;;16.63;10.98;;;308.10;1152.00;;;;;;4930447;29;20131;-64
2021/04/15 12:30:19;;;;;;;27.33;20.35;;;308.00;1152.00;;;;;;4931035;29;20042;-64
2021/04/15 12:33:06;;;;;;;29.85;19.45;;;308.10;1152.00;;;;;;4930793;29;20064;-64
2021/04/15 12:35:49;;;;;;;20.13;12.75;;;307.90;1152.00;;;;;;4930946;29;20072;-63
2021/04/15 12:38:40;;;;;;;15.93;12.70;;;307.90;1152.00;;;;;;4915357;29;20039;-64
2021/04/15 12:41:11;;;;;;;21.52;17.15;;;307.80;1152.00;;;;;;4930450;29;20390;-65
2021/04/15 12:43:40;;;;;;;18.33;13.18;;;308.00;1177.60;;;;;;4932483;29;20453;-65
2021/04/15 12:46:22;;;;;;;22.52;12.50;;;307.60;1203.20;;;;;;4934716;29;20487;-63
2021/04/15 12:48:52;;;;;;;41.63;28.42;;;307.30;1203.20;;;;;;4989128;28;20038;-64
2021/04/15 12:51:24;;;;;;;30.58;19.35;;;307.30;1228.80;;;;;;4992132;28;20030;-65
2021/04/15 12:53:51;;;;;;;22.85;15.80;;;282.30;1254.40;;;;;;5061807;28;20497;-64
2021/04/15 12:56:20;;;;;;;22.15;14.52;;;282.20;1254.40;;;;;;5073720;28;20024;-64
2021/04/15 12:58:47;;;;;;;21.10;12.23;;;281.90;1305.60;;;;;;5073173;28;20082;-64
2021/04/15 13:01:13;;;;;;;22.80;16.73;;;256.70;1331.20;;;;;;5073500;28;20478;-65
2021/04/15 13:03:41;;;;;;;25.02;17.23;;;281.60;1356.80;;;;;;5073157;28;20039;-63